createdAt,value
2019-04-07T00:00:53.101Z,24.37
2019-04-07T00:03:22.991Z,26.40
2019-04-07T00:05:52.351Z,26.30
2019-04-07T00:08:21.677Z,28.07
2019-04-07T00:10:51.679Z,26.20
2019-04-07T00:13:21.005Z,24.67
2019-04-07T00:15:50.245Z,29.93
2019-04-07T00:18:19.509Z,29.53
2019-04-07T00:20:48.666Z,33.20
2019-04-07T00:23:17.825Z,30.80
2019-04-07T00:25:46.994Z,28.30
2019-04-07T00:28:16.220Z,31.23
2019-04-07T00:30:45.449Z,26.23
2019-04-07T00:33:14.700Z,27.50
2019-04-07T00:35:43.953Z,28.07
2019-04-07T00:38:13.893Z,29.20
2019-04-07T00:40:43.113Z,26.33
2019-04-07T00:43:12.261Z,27.43
2019-04-07T00:45:50.912Z,25.47
2019-04-07T00:48:20.142Z,31.50
2019-04-07T00:50:49.376Z,33.23
2019-04-07T00:53:18.802Z,33.20
2019-04-07T00:55:48.497Z,33.70
2019-04-07T00:58:17.885Z,32.03
2019-04-07T01:00:48.037Z,26.87
2019-04-07T01:03:17.390Z,28.10
2019-04-07T01:05:46.787Z,26.90
2019-04-07T01:08:16.008Z,29.73
2019-04-07T01:10:45.833Z,32.63
2019-04-07T01:13:15.334Z,26.13
2019-04-07T01:15:44.805Z,27.77
2019-04-07T01:18:14.203Z,28.90
2019-04-07T01:20:43.960Z,32.10
2019-04-07T01:23:13.236Z,32.60
2019-04-07T01:25:42.381Z,33.03
2019-04-07T01:28:12.091Z,30.80
2019-04-07T01:30:41.492Z,29.43
2019-04-07T01:33:10.683Z,30.87
2019-04-07T01:35:47.420Z,28.73
2019-04-07T01:38:11.337Z,31.27
2019-04-07T01:40:41.911Z,28.90
2019-04-07T01:43:20.245Z,25.97
2019-04-07T01:46:07.012Z,26.53
2019-04-07T01:49:04.268Z,28.10
2019-04-07T01:52:05.105Z,26.90
2019-04-07T01:54:48.194Z,29.97
2019-04-07T01:57:27.845Z,30.70
2019-04-07T02:00:14.773Z,29.77
2019-04-07T02:02:53.377Z,26.33
2019-04-07T02:05:59.256Z,26.37
2019-04-07T02:08:52.890Z,26.37
2019-04-07T02:11:38.724Z,29.47
2019-04-07T02:14:26.961Z,26.10
2019-04-07T02:17:15.212Z,24.27
2019-04-07T02:19:49.939Z,24.53
2019-04-07T02:22:35.595Z,24.30
2019-04-07T02:25:23.191Z,21.37
2019-04-07T02:28:06.719Z,22.60
2019-04-07T02:31:07.922Z,23.17
2019-04-07T02:33:59.961Z,25.93
2019-04-07T02:36:51.283Z,26.50
2019-04-07T02:39:30.143Z,27.43
2019-04-07T02:42:27.258Z,25.70
2019-04-07T02:45:30.615Z,23.00
2019-04-07T02:48:18.806Z,22.40
2019-04-07T02:51:03.722Z,18.33
2019-04-07T02:53:55.270Z,21.93
2019-04-07T02:56:44.103Z,21.80
2019-04-07T02:59:24.541Z,19.17
2019-04-07T03:02:10.179Z,17.27
2019-04-07T03:05:11.781Z,19.20
2019-04-07T03:07:54.965Z,20.30
2019-04-07T03:10:49.054Z,18.63
2019-04-07T03:13:36.718Z,18.00
2019-04-07T03:16:37.468Z,18.37
2019-04-07T03:19:17.042Z,19.00
2019-04-07T03:22:08.512Z,19.07
2019-04-07T03:24:55.628Z,18.60
2019-04-07T03:27:40.574Z,19.13
2019-04-07T03:30:32.302Z,21.13
2019-04-07T03:33:21.817Z,21.03
2019-04-07T03:36:03.445Z,20.33
2019-04-07T03:38:57.893Z,17.50
2019-04-07T03:41:47.132Z,21.20
2019-04-07T03:44:31.119Z,23.37
2019-04-07T03:47:16.411Z,21.10
2019-04-07T03:49:55.594Z,24.43
2019-04-07T03:52:38.180Z,28.97
2019-04-07T03:55:25.443Z,26.73
2019-04-07T03:58:12.439Z,26.60
2019-04-07T04:01:33.146Z,24.30
2019-04-07T04:04:23.033Z,27.03
2019-04-07T04:06:58.453Z,34.17
2019-04-07T04:09:37.099Z,36.67
2019-04-07T04:12:19.373Z,30.00
2019-04-07T04:14:56.800Z,35.27
2019-04-07T04:17:34.882Z,33.13
2019-04-07T04:20:04.525Z,33.90
2019-04-07T04:22:33.660Z,33.93
2019-04-07T04:25:03.041Z,28.63
2019-04-07T04:27:33.181Z,32.50
2019-04-07T04:30:03.081Z,26.07
2019-04-07T04:32:32.806Z,31.17
2019-04-07T04:35:03.162Z,28.93
2019-04-07T04:37:39.982Z,31.00
2019-04-07T04:40:07.170Z,32.50
2019-04-07T04:42:38.176Z,31.37
2019-04-07T04:45:13.886Z,33.93
2019-04-07T04:47:43.590Z,33.03
2019-04-07T04:50:14.911Z,33.47
2019-04-07T04:55:11.454Z,35.00
2019-04-07T04:57:40.671Z,36.40
2019-04-07T05:00:10.412Z,34.30
2019-04-07T05:02:39.711Z,34.93
2019-04-07T05:05:09.690Z,34.33
2019-04-07T05:07:49.906Z,34.70
2019-04-07T05:10:11.361Z,34.03
2019-04-07T05:12:42.010Z,38.00
2019-04-07T05:15:11.935Z,36.67
2019-04-07T05:17:41.912Z,36.80
2019-04-07T05:20:11.469Z,37.60
2019-04-07T05:22:41.225Z,34.57
2019-04-07T05:25:10.620Z,34.67
2019-04-07T05:27:40.367Z,33.10
2019-04-07T05:30:10.178Z,38.43
2019-04-07T05:32:39.988Z,33.50
2019-04-07T05:35:09.333Z,32.83
2019-04-07T05:37:38.617Z,36.90
2019-04-07T05:40:07.925Z,36.50
2019-04-07T05:42:37.057Z,35.20
2019-04-07T05:45:06.628Z,31.97
2019-04-07T05:47:36.525Z,33.03
2019-04-07T05:50:06.452Z,34.17
2019-04-07T05:52:39.377Z,33.53
2019-04-07T05:55:07.734Z,31.67
2019-04-07T05:57:37.720Z,36.93
2019-04-07T06:00:11.147Z,36.70
2019-04-07T06:02:40.672Z,35.63
2019-04-07T06:05:09.995Z,35.87
2019-04-07T06:07:39.229Z,31.30
2019-04-07T06:10:10.004Z,31.00
2019-04-07T06:12:41.979Z,35.10
2019-04-07T06:15:10.854Z,33.50
2019-04-07T06:17:41.068Z,32.63
2019-04-07T06:20:14.248Z,31.80
2019-04-07T06:22:41.687Z,30.43
2019-04-07T06:25:11.184Z,33.80
2019-04-07T06:27:40.530Z,32.10
2019-04-07T06:30:11.808Z,33.20
2019-04-07T06:32:43.620Z,34.90
2019-04-07T06:35:13.880Z,34.73
2019-04-07T06:37:43.030Z,27.37
2019-04-07T06:40:12.386Z,27.07
2019-04-07T06:42:43.919Z,25.50
2019-04-07T06:45:15.088Z,26.47
2019-04-07T06:47:47.166Z,25.10
2019-04-07T06:50:45.496Z,27.00
2019-04-07T06:53:22.415Z,26.43
2019-04-07T06:56:13.473Z,24.87
2019-04-07T06:59:17.641Z,24.33
2019-04-07T07:01:59.527Z,25.40
2019-04-07T07:04:46.676Z,23.10
2019-04-07T07:07:45.844Z,67.63
2019-04-07T07:10:32.535Z,23.83
2019-04-07T07:13:28.393Z,23.60
2019-04-07T07:16:23.881Z,22.23
2019-04-07T07:19:06.387Z,22.70
2019-04-07T07:21:54.691Z,22.13
2019-04-07T07:24:25.698Z,22.00
2019-04-07T07:26:57.730Z,22.83
2019-04-07T07:29:26.858Z,20.63
2019-04-07T07:32:02.545Z,22.17
2019-04-07T07:34:27.332Z,21.10
2019-04-07T07:36:58.057Z,22.20
2019-04-07T07:39:28.336Z,24.47
2019-04-07T07:41:58.403Z,22.17
2019-04-07T07:44:27.824Z,21.77
2019-04-07T07:46:57.137Z,20.73
2019-04-07T07:49:28.138Z,21.50
2019-04-07T07:51:58.098Z,21.77
2019-04-07T07:54:28.358Z,21.37
2019-04-07T07:56:59.065Z,23.13
2019-04-07T07:59:31.609Z,22.70
2019-04-07T08:01:59.321Z,22.30
2019-04-07T08:04:29.129Z,21.40
2019-04-07T08:06:59.030Z,22.20
2019-04-07T08:09:28.386Z,20.47
2019-04-07T08:11:57.783Z,23.63
2019-04-07T08:14:27.448Z,20.50
2019-04-07T08:17:00.182Z,22.60
2019-04-07T08:19:30.517Z,21.23
2019-04-07T08:22:00.654Z,22.53
2019-04-07T08:24:30.464Z,20.33
2019-04-07T08:27:00.131Z,18.10
2019-04-07T08:29:30.145Z,19.37
2019-04-07T08:32:00.389Z,17.50
2019-04-07T08:34:31.522Z,18.57
2019-04-07T08:37:01.192Z,19.63
2019-04-07T08:39:34.088Z,19.20
2019-04-07T08:42:02.854Z,20.93
2019-04-07T08:44:32.891Z,20.13
2019-04-07T08:47:02.590Z,18.03
2019-04-07T08:49:33.525Z,17.00
2019-04-07T08:52:07.442Z,20.70
2019-04-07T08:54:34.254Z,18.80
2019-04-07T08:57:03.568Z,18.60
2019-04-07T08:59:32.831Z,19.30
2019-04-07T09:02:02.118Z,18.17
2019-04-07T09:04:31.969Z,19.53
2019-04-07T09:07:03.033Z,17.80
2019-04-07T09:09:35.946Z,19.30
2019-04-07T09:12:03.661Z,20.20
2019-04-07T09:14:32.946Z,18.00
2019-04-07T09:17:30.986Z,18.00
2019-04-07T09:20:10.664Z,19.40
2019-04-07T09:23:09.139Z,19.80
2019-04-07T09:25:57.242Z,17.73
2019-04-07T09:28:45.769Z,15.70
2019-04-07T09:31:20.057Z,16.40
2019-04-07T09:34:11.645Z,18.93
2019-04-07T09:37:12.260Z,16.73
2019-04-07T09:40:03.053Z,17.70
2019-04-07T09:42:50.788Z,15.77
2019-04-07T09:45:45.869Z,16.17
2019-04-07T09:48:41.416Z,15.10
2019-04-07T09:51:33.139Z,15.20
2019-04-07T09:54:23.408Z,14.60
2019-04-07T09:57:10.770Z,15.07
2019-04-07T10:00:01.947Z,13.83
2019-04-07T10:02:45.854Z,14.10
2019-04-07T10:05:34.705Z,13.40
2019-04-07T10:08:28.863Z,12.70
2019-04-07T10:11:20.838Z,14.30
2019-04-07T10:14:09.906Z,14.33
2019-04-07T10:16:54.117Z,13.73
2019-04-07T10:19:55.041Z,14.10
2019-04-07T10:22:39.655Z,13.43
2019-04-07T10:25:31.074Z,15.30
2019-04-07T10:28:17.812Z,12.53
2019-04-07T10:31:24.610Z,15.43
2019-04-07T10:34:18.732Z,12.23
2019-04-07T10:37:03.925Z,14.00
2019-04-07T10:40:02.810Z,14.30
2019-04-07T10:42:41.207Z,13.83
2019-04-07T10:45:28.499Z,13.27
2019-04-07T10:48:20.177Z,12.37
2019-04-07T10:51:05.632Z,13.50
2019-04-07T10:53:41.676Z,14.53
2019-04-07T10:56:26.581Z,15.57
2019-04-07T10:59:21.059Z,15.40
2019-04-07T11:02:00.286Z,13.57
2019-04-07T11:04:51.644Z,13.27
2019-04-07T11:07:40.459Z,11.70
2019-04-07T11:10:32.596Z,10.60
2019-04-07T11:13:23.173Z,9.27
2019-04-07T11:16:02.001Z,11.90
2019-04-07T11:18:56.866Z,12.00
2019-04-07T11:21:45.421Z,11.13
2019-04-07T11:24:33.816Z,11.93
2019-04-07T11:27:20.004Z,11.30
2019-04-07T11:30:07.893Z,10.60
2019-04-07T11:32:47.836Z,12.97
2019-04-07T11:35:28.644Z,12.07
2019-04-07T11:38:15.805Z,13.67
2019-04-07T11:41:06.228Z,14.20
2019-04-07T11:44:07.323Z,12.37
2019-04-07T11:46:51.771Z,15.50
2019-04-07T11:49:31.270Z,13.50
2019-04-07T11:52:09.599Z,14.33
2019-04-07T11:54:49.102Z,13.97
2019-04-07T11:57:43.328Z,13.23
2019-04-07T12:00:31.422Z,13.67
2019-04-07T12:03:20.083Z,14.27
2019-04-07T12:06:02.575Z,13.70
2019-04-07T12:08:51.206Z,12.20
2019-04-07T12:11:46.425Z,13.10
2019-04-07T12:14:28.768Z,12.67
2019-04-07T12:17:17.715Z,13.97
2019-04-07T12:20:15.160Z,14.50
2019-04-07T12:22:52.760Z,12.53
2019-04-07T12:25:41.629Z,10.60
2019-04-07T12:28:38.928Z,9.40
2019-04-07T12:31:29.912Z,12.63
2019-04-07T12:34:15.455Z,11.97
2019-04-07T12:37:02.431Z,11.67
2019-04-07T12:40:04.275Z,13.37
2019-04-07T12:42:50.334Z,12.00
2019-04-07T12:45:38.767Z,10.63
2019-04-07T12:48:29.336Z,9.70
2019-04-07T12:51:04.187Z,11.30
2019-04-07T12:53:43.390Z,10.00
2019-04-07T12:56:31.780Z,9.67
2019-04-07T12:59:04.666Z,9.50
2019-04-07T13:02:09.250Z,11.57
2019-04-07T13:04:52.789Z,12.30
2019-04-07T13:07:56.596Z,12.73
2019-04-07T13:10:47.971Z,10.77
2019-04-07T13:13:35.216Z,13.40
2019-04-07T13:16:23.682Z,13.70
2019-04-07T13:19:13.147Z,12.17
2019-04-07T13:22:09.713Z,12.10
2019-04-07T13:25:00.129Z,11.80
2019-04-07T13:27:48.019Z,11.20
2019-04-07T13:30:34.698Z,10.83
2019-04-07T13:33:28.976Z,12.07
2019-04-07T13:36:12.722Z,13.00
2019-04-07T13:38:51.520Z,12.30
2019-04-07T13:41:40.894Z,11.00
2019-04-07T13:44:32.374Z,11.13
2019-04-07T13:47:28.760Z,12.07
2019-04-07T13:50:19.772Z,11.97
2019-04-07T13:52:59.113Z,11.90
2019-04-07T13:55:48.620Z,11.93
2019-04-07T13:58:36.841Z,12.10
2019-04-07T14:01:23.981Z,11.67
2019-04-07T14:04:18.277Z,11.40
2019-04-07T14:06:59.669Z,15.27
2019-04-07T14:09:39.179Z,12.07
2019-04-07T14:12:15.465Z,12.53
2019-04-07T14:15:00.195Z,11.90
2019-04-07T14:17:43.935Z,13.13
2019-04-07T14:20:51.599Z,12.30
2019-04-07T14:23:30.194Z,11.90
2019-04-07T14:26:05.722Z,12.43
2019-04-07T14:29:01.985Z,12.53
2019-04-07T14:31:49.172Z,11.93
2019-04-07T14:34:37.041Z,12.23
2019-04-07T14:37:17.467Z,9.67
2019-04-07T14:39:53.733Z,9.90
2019-04-07T14:42:41.747Z,12.70
2019-04-07T14:45:42.829Z,11.90
2019-04-07T14:48:32.570Z,11.67
2019-04-07T14:51:19.661Z,12.13
2019-04-07T14:53:58.377Z,9.87
2019-04-07T14:56:49.957Z,9.83
2019-04-07T14:59:38.459Z,9.00
2019-04-07T15:02:08.218Z,9.03
2019-04-07T15:04:43.061Z,9.20
2019-04-07T15:07:26.376Z,9.57
2019-04-07T15:10:21.584Z,10.50
2019-04-07T15:13:01.745Z,9.80
2019-04-07T15:15:31.469Z,9.00
2019-04-07T15:18:01.889Z,10.60
2019-04-07T15:20:32.268Z,11.03
2019-04-07T15:23:02.807Z,11.40
2019-04-07T15:25:32.591Z,10.40
2019-04-07T15:28:02.550Z,10.27
2019-04-07T15:30:32.981Z,10.90
2019-04-07T15:33:03.072Z,11.40
2019-04-07T15:35:34.158Z,11.00
2019-04-07T15:38:03.676Z,10.70
2019-04-07T15:40:36.023Z,10.30
2019-04-07T15:43:07.559Z,11.60
2019-04-07T15:45:36.508Z,11.23
2019-04-07T15:48:07.050Z,10.93
2019-04-07T15:50:38.030Z,12.40
2019-04-07T15:53:07.766Z,11.37
2019-04-07T15:55:47.708Z,11.97
2019-04-07T15:58:08.546Z,11.27
2019-04-07T16:00:38.738Z,11.93
2019-04-07T16:03:08.561Z,11.53
2019-04-07T16:05:42.420Z,11.97
2019-04-07T16:08:11.244Z,10.47
2019-04-07T16:10:41.186Z,11.63
2019-04-07T16:13:11.013Z,11.43
2019-04-07T16:15:43.609Z,10.00
2019-04-07T16:18:12.562Z,10.87
2019-04-07T16:20:43.161Z,10.63
2019-04-07T16:23:17.448Z,11.00
2019-04-07T16:25:44.357Z,10.30
2019-04-07T16:28:15.957Z,11.30
2019-04-07T16:30:48.679Z,12.63
2019-04-07T16:33:17.195Z,10.97
2019-04-07T16:35:53.470Z,11.00
2019-04-07T16:38:18.061Z,11.70
2019-04-07T16:40:47.997Z,9.30
2019-04-07T16:43:18.930Z,11.10
2019-04-07T16:45:49.258Z,10.43
2019-04-07T16:48:18.623Z,11.63
2019-04-07T16:50:51.861Z,9.80
2019-04-07T16:53:19.156Z,10.23
2019-04-07T16:55:55.652Z,9.47
2019-04-07T16:58:25.463Z,8.97
2019-04-07T17:00:55.091Z,9.43
2019-04-07T17:03:25.739Z,8.93
2019-04-07T17:05:58.746Z,8.00
2019-04-07T17:08:28.638Z,8.60
2019-04-07T17:10:57.535Z,9.80
2019-04-07T17:13:34.855Z,8.97
2019-04-07T17:15:58.152Z,9.27
2019-04-07T17:18:42.916Z,8.20
2019-04-07T17:21:15.672Z,7.73
2019-04-07T17:23:45.514Z,9.90
2019-04-07T17:26:15.134Z,8.30
2019-04-07T17:28:47.168Z,7.63
2019-04-07T17:31:15.978Z,8.57
2019-04-07T17:33:45.737Z,9.40
2019-04-07T17:36:17.667Z,8.93
2019-04-07T17:39:05.422Z,8.23
2019-04-07T17:41:33.867Z,9.20
2019-04-07T17:44:15.317Z,9.27
2019-04-07T17:47:21.014Z,9.63
2019-04-07T17:50:02.419Z,12.73
2019-04-07T17:52:50.257Z,13.57
2019-04-07T17:55:33.201Z,13.43
2019-04-07T17:58:20.600Z,13.43
2019-04-07T18:01:23.040Z,15.47
2019-04-07T18:04:00.661Z,14.80
2019-04-07T18:07:03.626Z,16.63
2019-04-07T18:09:53.418Z,14.67
2019-04-07T18:12:49.952Z,14.00
2019-04-07T18:15:38.320Z,16.50
2019-04-07T18:18:24.031Z,15.60
2019-04-07T18:21:15.749Z,14.30
2019-04-07T18:24:19.071Z,15.47
2019-04-07T18:27:14.175Z,15.20
2019-04-07T18:29:49.157Z,13.23
2019-04-07T18:32:43.126Z,13.20
2019-04-07T18:35:33.018Z,13.97
2019-04-07T18:38:21.792Z,13.60
2019-04-07T18:41:07.020Z,13.57
2019-04-07T18:44:04.696Z,13.77
2019-04-07T18:46:52.202Z,13.40
2019-04-07T18:49:53.873Z,13.50
2019-04-07T18:52:54.370Z,14.57
2019-04-07T18:55:41.885Z,14.03
2019-04-07T18:58:48.710Z,12.33
2019-04-07T19:01:38.957Z,12.90
2019-04-07T19:04:30.362Z,12.00
2019-04-07T19:07:10.849Z,12.13
2019-04-07T19:10:09.620Z,11.73
2019-04-07T19:13:03.102Z,11.90
2019-04-07T19:15:31.102Z,12.20
2019-04-07T19:18:22.669Z,12.87
2019-04-07T19:21:22.868Z,11.70
2019-04-07T19:24:17.279Z,10.97
2019-04-07T19:26:57.356Z,10.50
2019-04-07T19:29:39.099Z,10.53
2019-04-07T19:32:25.085Z,12.67
2019-04-07T19:35:13.149Z,12.10
2019-04-07T19:38:05.406Z,10.87
2019-04-07T19:40:59.328Z,11.87
2019-04-07T19:43:54.273Z,11.77
2019-04-07T19:47:01.364Z,12.50
2019-04-07T19:49:54.500Z,10.70
2019-04-07T19:52:37.170Z,11.30
2019-04-07T19:55:23.573Z,12.07
2019-04-07T19:58:12.493Z,10.70
2019-04-07T20:00:55.000Z,11.13
2019-04-07T20:03:40.523Z,10.60
2019-04-07T20:06:41.905Z,10.10
2019-04-07T20:09:34.255Z,9.13
2019-04-07T20:12:29.958Z,10.07
2019-04-07T20:15:22.158Z,10.00
2019-04-07T20:18:27.826Z,8.87
2019-04-07T20:21:37.449Z,8.57
2019-04-07T20:24:24.493Z,8.43
2019-04-07T20:27:12.843Z,8.87
2019-04-07T20:29:58.371Z,8.77
2019-04-07T20:32:34.877Z,8.37
2019-04-07T20:35:19.554Z,8.10
2019-04-07T20:38:10.642Z,7.87
2019-04-07T20:40:59.709Z,7.53
2019-04-07T20:43:55.613Z,8.60
2019-04-07T20:46:43.617Z,7.87
2019-04-07T20:49:32.860Z,7.97
2019-04-07T20:52:22.229Z,7.20
2019-04-07T20:55:08.815Z,7.93
2019-04-07T20:58:13.045Z,7.83
2019-04-07T21:00:57.660Z,7.50
2019-04-07T21:03:55.626Z,7.40
2019-04-07T21:06:42.629Z,7.10
2019-04-07T21:09:36.689Z,7.37
2019-04-07T21:12:23.862Z,6.37
2019-04-07T21:15:30.953Z,6.67
2019-04-07T21:18:28.901Z,6.87
2019-04-07T21:21:09.610Z,6.70
2019-04-07T21:23:53.770Z,7.07
2019-04-07T21:26:29.794Z,6.17
2019-04-07T21:29:23.864Z,6.77
2019-04-07T21:32:18.773Z,7.20
2019-04-07T21:35:10.857Z,6.80
2019-04-07T21:38:06.042Z,6.07
2019-04-07T21:40:46.569Z,6.37
2019-04-07T21:43:33.960Z,6.33
2019-04-07T21:46:11.110Z,6.60
2019-04-07T21:49:05.606Z,7.17
2019-04-07T21:51:45.983Z,6.53
2019-04-07T21:54:37.857Z,6.03
2019-04-07T21:57:14.031Z,5.80
2019-04-07T22:00:17.555Z,5.73
2019-04-07T22:03:01.710Z,6.37
2019-04-07T22:05:39.849Z,5.70
2019-04-07T22:08:18.787Z,5.70
2019-04-07T22:10:51.364Z,5.77
2019-04-07T22:13:19.590Z,5.67
2019-04-07T22:15:55.633Z,5.90
2019-04-07T22:18:19.894Z,5.90
2019-04-07T22:20:52.947Z,4.70
2019-04-07T22:23:21.478Z,6.60
2019-04-07T22:25:52.357Z,5.23
2019-04-07T22:28:22.635Z,5.40
2019-04-07T22:30:53.537Z,6.20
2019-04-07T22:33:25.225Z,6.00
2019-04-07T22:35:53.724Z,5.17
2019-04-07T22:38:23.843Z,5.27
2019-04-07T22:40:54.182Z,5.67
2019-04-07T22:43:24.785Z,5.57
2019-04-07T22:46:04.171Z,5.97
2019-04-07T22:48:26.854Z,5.47
2019-04-07T22:50:56.223Z,5.90
2019-04-07T22:53:28.459Z,6.03
2019-04-07T22:56:09.000Z,6.07
2019-04-07T22:58:38.461Z,5.90
2019-04-07T23:01:07.816Z,4.67
2019-04-07T23:03:37.048Z,6.30
2019-04-07T23:06:06.386Z,5.63
2019-04-07T23:08:35.589Z,5.17
2019-04-07T23:11:05.006Z,5.20
2019-04-07T23:13:34.177Z,6.40
2019-04-07T23:16:10.897Z,6.27
2019-04-07T23:18:35.017Z,6.20
2019-04-07T23:21:05.183Z,6.77
2019-04-07T23:23:34.520Z,6.03
2019-04-07T23:26:03.821Z,5.97
2019-04-07T23:28:33.078Z,6.90
2019-04-07T23:31:03.232Z,5.90
2019-04-07T23:33:32.622Z,7.03
2019-04-07T23:36:01.898Z,7.60
2019-04-07T23:38:33.642Z,7.50
2019-04-07T23:41:02.088Z,7.27
2019-04-07T23:43:31.475Z,7.47
2019-04-07T23:46:00.993Z,7.20
2019-04-07T23:48:30.631Z,7.70
2019-04-07T23:50:59.856Z,6.40
2019-04-07T23:54:07.260Z,7.07
2019-04-07T23:56:36.978Z,7.87
2019-04-07T23:59:06.657Z,7.73
